This is the latest recevied weather packets stored in our database for station/object EA3KZ-1. If no packets are shown the sender has not sent any weather packets the latest 10 day(s).
| Time | Temp. | Humidity | Pressure | Rain* | Wind** | Luminosity | Snow |
|---|---|---|---|---|---|---|---|
| 1787591738 | 25.56° C | 83% | 1007.1 hPa | 0 mm | - | - | - |
| 1787591136 | 25.56° C | 80% | 1007.4 hPa | 0 mm | - | - | - |
| 1787590533 | 25.56° C | 79% | 1007.2 hPa | 0 mm | - | - | - |
| 1787589930 | 26.11° C | 78% | 1006.8 hPa | 0 mm | - | - | - |
| 1787589328 | 26.11° C | 76% | 1006.9 hPa | 0 mm | - | - | - |
| 1787588725 | 26.11° C | 78% | 1007 hPa | 0 mm | - | - | - |
| 1787588123 | 26.67° C | 76% | 1006.8 hPa | 0 mm | - | - | - |
| 1787587520 | 26.67° C | 75% | 1006.7 hPa | 0 mm | - | - | - |
| 1787586918 | 26.67° C | 74% | 1006.6 hPa | 0 mm | - | - | - |
| 1787586315 | 27.22° C | 70% | 1006.6 hPa | 0 mm | - | - | - |
| 1787585772 | 27.78° C | 67% | 1006.7 hPa | 0 mm | - | - | - |
| 1787585170 | 27.78° C | 63% | 1006.7 hPa | 0 mm | - | - | - |
| 1787584567 | 28.33° C | 60% | 1006.7 hPa | 0 mm | - | - | - |
| 1787583966 | 28.33° C | 61% | 1007.2 hPa | 0 mm | - | - | - |
| 1787583362 | 28.33° C | 62% | 1007.2 hPa | 0 mm | - | - | - |
| 1787582759 | 29.44° C | 59% | 1007.6 hPa | 0 mm | - | - | - |
| 1787582157 | 29.44° C | 59% | 1008 hPa | 0 mm | - | - | - |
| 1787581554 | 30° C | 59% | 1008 hPa | 0 mm | - | - | - |
| 1787580952 | 29.44° C | 61% | 1008.4 hPa | 0 mm | - | - | - |
| 1787580349 | 30° C | 61% | 1008.6 hPa | 0 mm | - | - | - |
| 1787579747 | 29.44° C | 62% | 1008.8 hPa | 0 mm | - | - | - |
| 1787579144 | 28.89° C | 62% | 1008.8 hPa | 0 mm | - | - | - |
| 1787578541 | 28.89° C | 67% | 1008.8 hPa | 0 mm | - | - | - |
| 1787577939 | 28.89° C | 67% | 1008.9 hPa | 0 mm | - | - | - |
| 1787577336 | 29.44° C | 61% | 1008.9 hPa | 0 mm | - | - | - |
* Rain latest hour (hover to see other rain measurements)
** Current wind speed in m/s (hover to see current wind gust speed)